createdAt,value
2022-11-18T00:01:14.168Z,0.34
2022-11-18T00:03:41.839Z,0.45
2022-11-18T00:06:15.542Z,0.53
2022-11-18T00:08:43.033Z,0.50
2022-11-18T00:11:33.972Z,0.55
2022-11-18T00:14:19.426Z,0.64
2022-11-18T00:17:01.629Z,0.61
2022-11-18T00:19:34.221Z,0.64
2022-11-18T00:22:01.905Z,0.47
2022-11-18T00:24:29.197Z,0.55
2022-11-18T00:26:56.486Z,0.55
2022-11-18T00:29:24.211Z,0.47
2022-11-18T00:31:51.087Z,0.57
2022-11-18T00:34:19.503Z,0.47
2022-11-18T00:36:47.701Z,0.45
2022-11-18T00:39:17.791Z,0.44
2022-11-18T00:42:04.114Z,0.52
2022-11-18T00:44:31.268Z,0.38
2022-11-18T00:46:58.530Z,0.47
2022-11-18T00:49:25.443Z,0.43
2022-11-18T00:51:52.449Z,0.47
2022-11-18T00:54:19.631Z,0.48
2022-11-18T00:56:46.525Z,0.52
2022-11-18T00:59:13.461Z,0.48
2022-11-18T01:01:40.493Z,0.37
2022-11-18T01:04:07.445Z,0.45
2022-11-18T01:06:34.380Z,0.41
2022-11-18T01:09:01.303Z,0.40
2022-11-18T01:11:46.867Z,0.35
2022-11-18T01:14:13.803Z,0.41
2022-11-18T01:16:40.712Z,0.44
2022-11-18T01:19:07.854Z,0.42
2022-11-18T01:21:34.896Z,0.39
2022-11-18T01:24:01.846Z,0.44
2022-11-18T01:26:28.837Z,0.42
2022-11-18T01:28:57.881Z,0.41
2022-11-18T01:31:25.215Z,0.48
2022-11-18T01:33:52.535Z,0.42
2022-11-18T01:36:25.171Z,0.39
2022-11-18T01:38:53.360Z,0.33
2022-11-18T01:41:22.341Z,0.32
2022-11-18T01:43:54.530Z,0.24
2022-11-18T01:46:23.152Z,0.32
2022-11-18T01:48:55.827Z,0.33
2022-11-18T01:51:32.002Z,0.24
2022-11-18T01:54:06.434Z,0.23
2022-11-18T01:56:45.611Z,0.12
2022-11-18T01:59:17.209Z,0.14
2022-11-18T02:01:44.828Z,0.20
2022-11-18T02:04:12.639Z,0.21
2022-11-18T02:07:01.816Z,0.16
2022-11-18T02:09:53.366Z,0.06
2022-11-18T02:12:39.571Z,0.12
2022-11-18T02:16:10.254Z,0.19
2022-11-18T02:19:15.061Z,0.08
2022-11-18T02:22:11.905Z,0.20
2022-11-18T02:25:04.587Z,0.20
2022-11-18T02:28:09.893Z,0.08
2022-11-18T02:31:02.547Z,-0.01
2022-11-18T02:33:43.537Z,-0.06
2022-11-18T02:36:29.656Z,-0.09
2022-11-18T02:39:03.507Z,-0.02
2022-11-18T02:41:34.471Z,-0.15
2022-11-18T02:44:22.358Z,0.07
2022-11-18T02:46:56.375Z,0.05
2022-11-18T02:49:39.234Z,0.16
2022-11-18T02:52:09.280Z,0.17
2022-11-18T02:54:40.265Z,0.14
2022-11-18T02:57:09.481Z,0.06
2022-11-18T02:59:36.426Z,-0.05
2022-11-18T03:02:04.789Z,-0.12
2022-11-18T03:04:34.691Z,-0.17
2022-11-18T03:07:06.130Z,-0.10
2022-11-18T03:09:39.235Z,-0.03
2022-11-18T03:12:24.800Z,-0.09
2022-11-18T03:15:09.343Z,-0.09
2022-11-18T03:18:08.255Z,-0.06
2022-11-18T03:20:56.025Z,-0.17
2022-11-18T03:23:41.780Z,-0.12
2022-11-18T03:26:25.241Z,-0.13
2022-11-18T03:29:02.709Z,-0.11
2022-11-18T03:31:40.012Z,-0.17
2022-11-18T03:34:19.955Z,-0.24
2022-11-18T03:36:52.228Z,-0.33
2022-11-18T03:39:23.497Z,-0.22
2022-11-18T03:41:57.424Z,-0.17
2022-11-18T03:44:31.380Z,-0.25
2022-11-18T03:47:25.576Z,-0.27
2022-11-18T03:50:04.527Z,-0.30
2022-11-18T03:52:35.988Z,-0.23
2022-11-18T03:55:09.839Z,-0.28
2022-11-18T03:57:49.835Z,-0.29
2022-11-18T04:00:18.257Z,-0.33
2022-11-18T04:02:48.091Z,-0.32
2022-11-18T04:05:18.425Z,-0.29
2022-11-18T04:07:55.489Z,-0.39
2022-11-18T04:10:45.305Z,-0.35
2022-11-18T04:13:14.802Z,-0.34
2022-11-18T04:15:43.015Z,-0.32
2022-11-18T04:18:10.748Z,-0.35
2022-11-18T04:20:38.549Z,-0.32
2022-11-18T04:23:07.183Z,-0.35
2022-11-18T04:25:34.818Z,-0.43
2022-11-18T04:28:02.075Z,-0.34
2022-11-18T04:30:29.249Z,-0.44
2022-11-18T04:32:56.172Z,-0.38
2022-11-18T04:35:23.243Z,-0.47
2022-11-18T04:37:50.168Z,-0.37
2022-11-18T04:40:17.338Z,-0.30
2022-11-18T04:42:44.422Z,-0.30
2022-11-18T04:45:12.048Z,-0.26
2022-11-18T04:47:39.249Z,-0.30
2022-11-18T04:50:06.644Z,-0.31
2022-11-18T04:52:33.620Z,-0.28
2022-11-18T04:55:00.567Z,-0.29
2022-11-18T04:57:27.583Z,-0.39
2022-11-18T04:59:54.490Z,-0.42
2022-11-18T05:02:21.466Z,-0.55
2022-11-18T05:04:48.418Z,-0.52
2022-11-18T05:07:16.558Z,-0.45
2022-11-18T05:09:43.569Z,-0.41
2022-11-18T05:12:33.434Z,-0.43
2022-11-18T05:15:00.765Z,-0.38
2022-11-18T05:17:29.034Z,-0.39
2022-11-18T05:19:56.111Z,-0.38
2022-11-18T05:22:23.090Z,-0.54
2022-11-18T05:24:49.999Z,-0.45
2022-11-18T05:27:17.122Z,-0.36
2022-11-18T05:29:44.595Z,-0.29
2022-11-18T05:32:11.975Z,-0.30
2022-11-18T05:34:40.755Z,-0.30
2022-11-18T05:37:08.009Z,-0.24
2022-11-18T05:39:34.889Z,-0.20
2022-11-18T05:42:20.580Z,-0.16
2022-11-18T05:44:47.569Z,-0.17
2022-11-18T05:47:14.570Z,-0.14
2022-11-18T05:49:41.440Z,-0.17
2022-11-18T05:52:08.424Z,-0.23
2022-11-18T05:54:35.563Z,-0.49
2022-11-18T05:57:02.552Z,-0.30
2022-11-18T05:59:29.466Z,-0.25
2022-11-18T06:02:02.348Z,-0.18
2022-11-18T06:04:36.854Z,-0.12
2022-11-18T06:07:12.247Z,-0.13
2022-11-18T06:09:43.468Z,-0.08
2022-11-18T06:12:16.770Z,-0.04
2022-11-18T06:14:50.339Z,-0.09
2022-11-18T06:17:24.884Z,-0.11
2022-11-18T06:19:52.522Z,-0.22
2022-11-18T06:22:19.881Z,-0.23
2022-11-18T06:24:46.946Z,-0.23
2022-11-18T06:27:14.839Z,-0.22
2022-11-18T06:29:41.820Z,-0.18
2022-11-18T06:32:08.911Z,-0.13
2022-11-18T06:34:41.239Z,-0.26
2022-11-18T06:37:23.313Z,-0.32
2022-11-18T06:39:50.280Z,-0.11
2022-11-18T06:42:37.106Z,-0.11
2022-11-18T06:45:06.324Z,-0.11
2022-11-18T06:47:33.289Z,-0.08
2022-11-18T06:50:00.182Z,-0.09
2022-11-18T06:52:27.865Z,-0.07
2022-11-18T06:54:54.790Z,-0.07
2022-11-18T06:57:21.847Z,-0.29
2022-11-18T06:59:48.780Z,-0.37
2022-11-18T07:02:15.723Z,-0.36
2022-11-18T07:04:42.669Z,-0.41
2022-11-18T07:07:09.662Z,-0.44
2022-11-18T07:09:37.528Z,-0.41
2022-11-18T07:12:04.963Z,-0.37
2022-11-18T07:14:32.498Z,-0.29
2022-11-18T07:16:59.419Z,-0.25
2022-11-18T07:19:29.060Z,-0.23
2022-11-18T07:22:00.354Z,-0.30
2022-11-18T07:24:27.258Z,-0.32
2022-11-18T07:26:54.676Z,-0.32
2022-11-18T07:29:21.573Z,-0.39
2022-11-18T07:31:48.493Z,-0.26
2022-11-18T07:34:15.527Z,-0.27
2022-11-18T07:36:42.515Z,-0.24
2022-11-18T07:39:09.759Z,-0.16
2022-11-18T07:41:36.714Z,-0.21
2022-11-18T07:44:05.338Z,-0.26
2022-11-18T07:46:35.235Z,-0.17
2022-11-18T07:49:05.682Z,-0.15
2022-11-18T07:51:35.565Z,-0.19
2022-11-18T07:54:13.496Z,-0.47
2022-11-18T07:56:40.657Z,-0.25
2022-11-18T07:59:07.998Z,-0.27
2022-11-18T08:01:35.544Z,-0.18
2022-11-18T08:04:12.789Z,-0.13
2022-11-18T08:06:40.499Z,-0.07
2022-11-18T08:09:08.245Z,-0.20
2022-11-18T08:11:35.421Z,-0.16
2022-11-18T08:14:02.668Z,-0.12
2022-11-18T08:16:30.010Z,-0.09
2022-11-18T08:18:58.988Z,-0.09
2022-11-18T08:21:25.904Z,0.00
2022-11-18T08:23:55.628Z,-0.04
2022-11-18T08:26:23.467Z,-0.16
2022-11-18T08:28:50.717Z,-0.07
2022-11-18T08:31:26.317Z,-0.15
2022-11-18T08:34:01.648Z,-0.17
2022-11-18T08:36:30.846Z,-0.13
2022-11-18T08:38:59.554Z,-0.15
2022-11-18T08:41:36.804Z,-0.07
2022-11-18T08:44:04.956Z,-0.12
2022-11-18T08:46:32.636Z,-0.13
2022-11-18T08:49:00.285Z,-0.21
2022-11-18T08:51:28.044Z,-0.41
2022-11-18T08:53:55.044Z,-0.31
2022-11-18T08:56:23.574Z,-0.30
2022-11-18T08:58:51.291Z,-0.21
2022-11-18T09:01:18.518Z,-0.19
2022-11-18T09:03:45.946Z,-0.16
2022-11-18T09:06:16.167Z,-0.16
2022-11-18T09:08:43.499Z,-0.10
2022-11-18T09:11:11.621Z,-0.18
2022-11-18T09:14:39.115Z,-0.24
2022-11-18T09:16:28.306Z,-0.22
2022-11-18T09:18:57.089Z,-0.25
2022-11-18T09:21:25.838Z,-0.19
2022-11-18T09:23:53.101Z,-0.17
2022-11-18T09:26:23.928Z,-0.14
2022-11-18T09:28:53.900Z,-0.03
2022-11-18T09:31:21.049Z,-0.02
2022-11-18T09:33:48.532Z,-0.03
2022-11-18T09:36:21.176Z,-0.02
2022-11-18T09:38:51.875Z,-0.01
2022-11-18T09:41:38.566Z,-0.12
2022-11-18T09:44:17.859Z,-0.21
2022-11-18T09:47:23.128Z,-0.14
2022-11-18T09:49:50.278Z,-0.17
2022-11-18T09:52:24.982Z,-0.17
2022-11-18T09:54:52.079Z,-0.20
2022-11-18T09:57:24.608Z,-0.11
2022-11-18T09:59:52.796Z,-0.22
2022-11-18T10:02:45.659Z,-0.07
2022-11-18T10:05:22.842Z,-0.04
2022-11-18T10:08:14.113Z,0.02
2022-11-18T10:11:12.930Z,-0.03
2022-11-18T10:13:58.623Z,-0.06
2022-11-18T10:17:02.626Z,-0.04
2022-11-18T10:19:36.434Z,-0.13
2022-11-18T10:22:35.126Z,-0.09
2022-11-18T10:25:02.067Z,-0.04
2022-11-18T10:27:41.174Z,-0.19
2022-11-18T10:30:19.781Z,-0.11
2022-11-18T10:32:58.249Z,-0.24
2022-11-18T10:35:31.070Z,-0.24
2022-11-18T10:38:24.084Z,-0.30
2022-11-18T10:40:52.352Z,-0.24
2022-11-18T10:43:45.913Z,-0.28
2022-11-18T10:46:29.595Z,-0.26
2022-11-18T10:49:17.711Z,-0.25
2022-11-18T10:52:10.504Z,-0.29
2022-11-18T10:54:38.110Z,-0.31
2022-11-18T10:57:23.895Z,-0.37
2022-11-18T10:59:58.153Z,-0.43
2022-11-18T11:02:31.204Z,-0.52
2022-11-18T11:05:01.870Z,-0.61
2022-11-18T11:07:37.164Z,-0.61
2022-11-18T11:10:07.225Z,-0.60
2022-11-18T11:12:37.721Z,-0.63
2022-11-18T11:15:11.123Z,-0.58
2022-11-18T11:17:43.322Z,-0.58
2022-11-18T11:20:24.870Z,-0.54
2022-11-18T11:22:51.822Z,-0.63
2022-11-18T11:25:28.248Z,-0.64
2022-11-18T11:31:11.839Z,-0.67
2022-11-18T11:33:47.664Z,-0.64
2022-11-18T11:36:35.868Z,-0.77
2022-11-18T11:39:12.416Z,-0.72
2022-11-18T11:41:44.980Z,-0.79
2022-11-18T11:44:36.183Z,-0.68
2022-11-18T11:47:36.724Z,-0.72
2022-11-18T11:50:31.445Z,-0.72
2022-11-18T11:53:21.250Z,-0.87
2022-11-18T11:56:04.245Z,-0.97
2022-11-18T11:58:52.124Z,-0.90
2022-11-18T12:01:49.734Z,-0.91
2022-11-18T12:04:25.550Z,-0.92
2022-11-18T12:06:55.448Z,-1.01
2022-11-18T12:09:29.279Z,-1.00
2022-11-18T12:12:36.343Z,-1.02
2022-11-18T12:15:26.394Z,-1.02
2022-11-18T12:18:09.191Z,-1.02
2022-11-18T12:20:48.163Z,-1.13
2022-11-18T12:23:16.770Z,-1.18
2022-11-18T12:25:53.239Z,-1.16
2022-11-18T12:28:42.801Z,-1.14
2022-11-18T12:31:18.907Z,-1.22
2022-11-18T12:33:50.220Z,-1.15
2022-11-18T12:36:40.257Z,-1.18
2022-11-18T12:39:25.639Z,-1.22
2022-11-18T12:42:16.441Z,-1.46
2022-11-18T12:44:45.951Z,-1.28
2022-11-18T12:47:35.352Z,-1.23
2022-11-18T12:50:15.994Z,-1.26
2022-11-18T12:52:42.829Z,-1.18
2022-11-18T12:55:21.249Z,-1.19
2022-11-18T12:57:48.144Z,-1.18
2022-11-18T13:00:24.150Z,-1.18
2022-11-18T13:02:55.331Z,-1.36
2022-11-18T13:05:24.454Z,-1.37
2022-11-18T13:08:09.849Z,-1.24
2022-11-18T13:10:45.095Z,-1.30
2022-11-18T13:13:24.352Z,-1.28
2022-11-18T13:16:10.096Z,-1.40
2022-11-18T13:18:48.916Z,-1.36
2022-11-18T13:21:44.207Z,-1.37
2022-11-18T13:24:16.868Z,-1.54
2022-11-18T13:26:46.390Z,-1.51
2022-11-18T13:29:22.580Z,-1.51
2022-11-18T13:31:58.398Z,-1.38
2022-11-18T13:34:28.237Z,-1.40
2022-11-18T13:36:58.357Z,-1.31
2022-11-18T13:39:29.683Z,-1.37
2022-11-18T13:42:16.389Z,-1.35
2022-11-18T13:44:47.445Z,-1.27
2022-11-18T13:47:29.556Z,-1.27
2022-11-18T13:50:13.166Z,-1.24
2022-11-18T13:52:45.074Z,-1.31
2022-11-18T13:55:40.258Z,-1.52
2022-11-18T13:58:29.773Z,-1.32
2022-11-18T14:01:00.913Z,-1.30
2022-11-18T14:03:33.248Z,-1.37
2022-11-18T14:06:00.890Z,-1.35
2022-11-18T14:08:31.513Z,-1.32
2022-11-18T14:10:59.212Z,-1.27
2022-11-18T14:13:37.507Z,-1.29
2022-11-18T14:16:24.298Z,-1.34
2022-11-18T14:18:52.229Z,-1.25
2022-11-18T14:21:30.366Z,-1.29
2022-11-18T14:23:58.293Z,-1.30
2022-11-18T14:26:32.323Z,-1.37
2022-11-18T14:29:02.099Z,-1.37
2022-11-18T14:31:31.905Z,-1.32
2022-11-18T14:34:20.057Z,-1.27
2022-11-18T14:36:48.182Z,-1.27
2022-11-18T14:39:32.398Z,-1.44
2022-11-18T14:41:59.728Z,-1.36
2022-11-18T14:44:28.075Z,-1.27
2022-11-18T14:47:03.097Z,-1.35
2022-11-18T14:49:32.992Z,-1.38
2022-11-18T14:52:02.862Z,-1.40
2022-11-18T14:54:31.200Z,-1.36
2022-11-18T14:57:01.840Z,-1.41
2022-11-18T14:59:32.355Z,-1.44
2022-11-18T15:01:59.830Z,-1.48
2022-11-18T15:04:26.909Z,-1.49
2022-11-18T15:06:54.091Z,-1.47
2022-11-18T15:09:21.205Z,-1.43
2022-11-18T15:11:48.127Z,-1.37
2022-11-18T15:14:15.789Z,-1.38
2022-11-18T15:16:42.992Z,-1.42
2022-11-18T15:19:15.413Z,-1.44
2022-11-18T15:21:43.769Z,-1.61
2022-11-18T15:24:10.734Z,-1.63
2022-11-18T15:26:43.442Z,-1.51
2022-11-18T15:29:21.885Z,-1.53
2022-11-18T15:31:49.420Z,-1.53
2022-11-18T15:34:18.615Z,-1.54
2022-11-18T15:36:46.251Z,-1.65
2022-11-18T15:39:14.073Z,-1.61
2022-11-18T15:41:43.135Z,-1.59
2022-11-18T15:44:11.375Z,-1.58
2022-11-18T15:46:39.414Z,-1.60
2022-11-18T15:49:09.476Z,-1.70
2022-11-18T15:51:37.325Z,-1.59
2022-11-18T15:54:04.344Z,-1.58
2022-11-18T15:56:32.082Z,-1.65
2022-11-18T15:59:13.473Z,-1.67
2022-11-18T16:01:45.860Z,-1.59
2022-11-18T16:04:14.825Z,-1.59
2022-11-18T16:06:44.750Z,-1.68
2022-11-18T16:09:13.096Z,-1.58
2022-11-18T16:11:58.819Z,-1.58
2022-11-18T16:14:26.285Z,-1.63
2022-11-18T16:16:55.479Z,-1.58
2022-11-18T16:19:24.884Z,-1.63
2022-11-18T16:21:57.278Z,-1.82
2022-11-18T16:24:27.033Z,-1.74
2022-11-18T16:26:54.813Z,-1.74
2022-11-18T16:29:22.526Z,-1.63
2022-11-18T16:31:54.887Z,-1.70
2022-11-18T16:34:25.131Z,-1.58
2022-11-18T16:36:55.694Z,-1.61
2022-11-18T16:39:26.011Z,-1.52
2022-11-18T16:42:02.122Z,-1.55
2022-11-18T16:44:33.656Z,-1.53
2022-11-18T16:47:00.606Z,-1.58
2022-11-18T16:49:28.215Z,-1.50
2022-11-18T16:51:57.141Z,-1.59
2022-11-18T16:54:29.022Z,-1.55
2022-11-18T16:56:58.775Z,-1.51
2022-11-18T16:59:28.156Z,-1.58
2022-11-18T17:01:57.489Z,-1.49
2022-11-18T17:04:27.937Z,-1.73
2022-11-18T17:06:56.818Z,-1.61
2022-11-18T17:09:26.489Z,-1.59
2022-11-18T17:11:56.007Z,-1.51
2022-11-18T17:14:23.699Z,-1.57
2022-11-18T17:16:51.774Z,-1.65
2022-11-18T17:19:21.838Z,-1.72
2022-11-18T17:21:50.300Z,-1.66
2022-11-18T17:24:20.714Z,-1.65
2022-11-18T17:26:48.780Z,-1.81
2022-11-18T17:29:16.965Z,-1.60
2022-11-18T17:31:44.433Z,-1.58
2022-11-18T17:34:13.403Z,-1.56
2022-11-18T17:36:40.993Z,-1.62
2022-11-18T17:39:11.191Z,-1.67
2022-11-18T17:41:56.911Z,-1.65
2022-11-18T17:44:24.822Z,-1.59
2022-11-18T17:46:51.871Z,-1.62
2022-11-18T17:49:19.673Z,-1.60
2022-11-18T17:51:46.652Z,-1.65
2022-11-18T17:54:14.676Z,-1.84
2022-11-18T17:56:43.445Z,-1.63
2022-11-18T17:59:10.789Z,-1.72
2022-11-18T18:01:37.828Z,-1.66
2022-11-18T18:04:05.381Z,-1.68
2022-11-18T18:06:32.555Z,-1.66
2022-11-18T18:08:59.735Z,-1.82
2022-11-18T18:11:27.938Z,-1.65
2022-11-18T18:14:13.976Z,-1.78
2022-11-18T18:16:45.954Z,-2.03
2022-11-18T18:19:16.045Z,-1.82
2022-11-18T18:21:43.152Z,-1.85
2022-11-18T18:24:10.588Z,-1.80
2022-11-18T18:26:38.249Z,-1.76
2022-11-18T18:29:05.882Z,-1.91
2022-11-18T18:31:37.434Z,-1.77
2022-11-18T18:34:05.305Z,-1.79
2022-11-18T18:36:32.866Z,-1.86
2022-11-18T18:39:01.156Z,-1.78
2022-11-18T18:41:28.440Z,-1.78
2022-11-18T18:43:57.056Z,-1.72
2022-11-18T18:46:36.805Z,-1.81
2022-11-18T18:49:09.239Z,-1.82
2022-11-18T18:51:39.768Z,-1.81
2022-11-18T18:54:09.859Z,-1.80
2022-11-18T18:56:36.857Z,-1.96
2022-11-18T18:59:03.872Z,-1.85
2022-11-18T19:01:31.491Z,-1.85
2022-11-18T19:04:01.202Z,-1.88
2022-11-18T19:09:18.350Z,-2.01
2022-11-18T19:12:04.734Z,-1.86
2022-11-18T19:14:35.638Z,-1.77
2022-11-18T19:17:09.675Z,-1.90
2022-11-18T19:19:57.244Z,-1.72
2022-11-18T19:22:24.772Z,-1.73
2022-11-18T19:24:52.576Z,-1.80
2022-11-18T19:27:20.612Z,-1.80
2022-11-18T19:29:47.610Z,-1.80
2022-11-18T19:32:15.619Z,-1.81
2022-11-18T19:34:44.345Z,-1.87
2022-11-18T19:37:11.507Z,-1.78
2022-11-18T19:39:38.826Z,-1.81
2022-11-18T19:42:06.037Z,-1.85
2022-11-18T19:44:32.971Z,-1.80
2022-11-18T19:47:00.234Z,-1.76
2022-11-18T19:49:27.173Z,-1.89
2022-11-18T19:51:54.101Z,-1.83
2022-11-18T19:54:21.019Z,-1.82
2022-11-18T19:56:48.000Z,-1.75
2022-11-18T19:59:14.933Z,-1.73
2022-11-18T20:01:42.039Z,-1.68
2022-11-18T20:04:09.144Z,-1.68
2022-11-18T20:06:37.105Z,-1.74
2022-11-18T20:09:07.993Z,-1.72
2022-11-18T20:11:37.374Z,-1.65
2022-11-18T20:14:04.771Z,-1.67
2022-11-18T20:16:32.562Z,-1.66
2022-11-18T20:19:09.335Z,-1.62
2022-11-18T20:21:39.388Z,-1.64
2022-11-18T20:24:08.181Z,-1.65
2022-11-18T20:26:37.764Z,-1.64
2022-11-18T20:29:08.801Z,-1.70
2022-11-18T20:31:36.738Z,-1.68
2022-11-18T20:34:04.784Z,-1.66
2022-11-18T20:36:36.729Z,-1.92
2022-11-18T20:39:11.907Z,-1.81
2022-11-18T20:41:38.917Z,-1.81
2022-11-18T20:44:05.989Z,-1.73
2022-11-18T20:46:34.715Z,-1.72
2022-11-18T20:49:02.072Z,-1.67
2022-11-18T20:51:29.332Z,-1.67
2022-11-18T20:53:57.852Z,-1.87
2022-11-18T20:56:26.770Z,-1.78
2022-11-18T20:58:54.119Z,-1.77
2022-11-18T21:01:23.486Z,-1.81
2022-11-18T21:03:55.878Z,-1.75
2022-11-18T21:06:24.558Z,-1.73
2022-11-18T21:08:59.756Z,-1.78
2022-11-18T21:11:27.739Z,-1.81
2022-11-18T21:14:16.009Z,-1.95
2022-11-18T21:16:46.427Z,-1.79
2022-11-18T21:19:14.263Z,-1.85
2022-11-18T21:21:52.290Z,-1.82
2022-11-18T21:24:22.092Z,-1.84
2022-11-18T21:26:50.878Z,-1.90
2022-11-18T21:29:18.617Z,-1.97
2022-11-18T21:31:47.395Z,-2.00
2022-11-18T21:34:16.220Z,-1.97
2022-11-18T21:36:47.006Z,-1.90
2022-11-18T21:39:17.780Z,-1.88
2022-11-18T21:41:47.489Z,-1.91
2022-11-18T21:44:16.650Z,-1.89
2022-11-18T21:46:43.616Z,-1.96
2022-11-18T21:49:10.776Z,-2.08
2022-11-18T21:51:37.897Z,-2.02
2022-11-18T21:54:05.151Z,-2.14
2022-11-18T21:56:32.665Z,-2.25
2022-11-18T21:59:01.995Z,-2.17
2022-11-18T22:01:31.884Z,-2.36
2022-11-18T22:04:01.077Z,-2.34
2022-11-18T22:06:30.370Z,-2.41
2022-11-18T22:08:57.871Z,-2.49
2022-11-18T22:11:25.933Z,-2.44
2022-11-18T22:13:53.610Z,-2.43
2022-11-18T22:16:25.400Z,-2.58
2022-11-18T22:19:01.175Z,-2.34
2022-11-18T22:21:31.077Z,-2.20
2022-11-18T22:24:02.265Z,-2.28
2022-11-18T22:26:29.936Z,-2.29
2022-11-18T22:28:58.609Z,-2.28
2022-11-18T22:31:28.294Z,-2.29
2022-11-18T22:33:56.588Z,-2.28
2022-11-18T22:36:25.588Z,-2.32
2022-11-18T22:38:53.815Z,-2.26
2022-11-18T22:41:41.832Z,-2.21
2022-11-18T22:44:10.236Z,-2.44
2022-11-18T22:46:38.560Z,-2.30
2022-11-18T22:49:08.129Z,-2.28
2022-11-18T22:51:39.229Z,-2.23
2022-11-18T22:56:55.021Z,-2.43
2022-11-18T22:59:22.508Z,-2.35
2022-11-18T23:01:51.947Z,-2.42
2022-11-18T23:04:19.197Z,-2.48
2022-11-18T23:06:46.497Z,-2.45
2022-11-18T23:09:13.459Z,-2.43
2022-11-18T23:11:59.132Z,-2.41
2022-11-18T23:14:26.218Z,-2.57
2022-11-18T23:16:53.736Z,-2.35
2022-11-18T23:19:21.046Z,-2.49
2022-11-18T23:21:48.908Z,-2.43
2022-11-18T23:24:18.130Z,-2.50
2022-11-18T23:26:45.887Z,-2.42
2022-11-18T23:29:14.700Z,-2.36
2022-11-18T23:31:44.054Z,-2.33
2022-11-18T23:34:12.782Z,-2.31
2022-11-18T23:36:40.525Z,-2.27
2022-11-18T23:39:07.802Z,-2.28
2022-11-18T23:41:34.847Z,-2.21
2022-11-18T23:44:04.880Z,-2.28
2022-11-18T23:46:33.071Z,-2.26
2022-11-18T23:48:59.997Z,-2.20
2022-11-18T23:51:27.007Z,-2.11
2022-11-18T23:53:58.059Z,-2.20
2022-11-18T23:56:27.669Z,-2.04
2022-11-18T23:58:56.278Z,-2.08
